Terminal Aerodrome Forecast
Issued by NWS

Home | Current Version | Previous Version | Text Only | Print | Product List | Glossary On
Versions: 1 2 3 4 5 6 7 8 9 10 11 12
000
FTUS46 KSEW 070545
TAFOLM
TAF
KOLM 070545Z 0706/0806 22006KT P6SM SKC
     FM071200 19005KT P6SM SCT015
      TEMPO 0712/0714 BKN015
     FM071400 19005KT P6SM OVC010
     FM071900 VRB05KT P6SM SKC=

USA.gov is the U.S. government's official web portal to all federal, state and local government web resources and services.